sensor_id;sensor_type;location;lat;lon;timestamp;pressure;altitude;pressure_sealevel;temperature;humidity
48668;BME280;34453;52.198;5.004;2023-08-30T00:00:15;100912.00;;;14.28;100.00
48668;BME280;34453;52.198;5.004;2023-08-30T00:02:43;100912.97;;;14.27;100.00
48668;BME280;34453;52.198;5.004;2023-08-30T00:05:09;100905.41;;;14.24;100.00
48668;BME280;34453;52.198;5.004;2023-08-30T00:07:35;100901.31;;;14.29;100.00
48668;BME280;34453;52.198;5.004;2023-08-30T00:10:00;100908.06;;;14.32;100.00
48668;BME280;34453;52.198;5.004;2023-08-30T00:12:27;100908.72;;;14.34;100.00
48668;BME280;34453;52.198;5.004;2023-08-30T00:14:52;100898.84;;;14.36;100.00
48668;BME280;34453;52.198;5.004;2023-08-30T00:17:17;100900.84;;;14.34;100.00
48668;BME280;34453;52.198;5.004;2023-08-30T00:19:45;100894.91;;;14.32;100.00
48668;BME280;34453;52.198;5.004;2023-08-30T00:22:10;100895.22;;;14.29;100.00
48668;BME280;34453;52.198;5.004;2023-08-30T00:24:37;100886.34;;;14.30;100.00
48668;BME280;34453;52.198;5.004;2023-08-30T00:27:03;100880.75;;;14.33;100.00
48668;BME280;34453;52.198;5.004;2023-08-30T00:29:29;100885.69;;;14.28;100.00
48668;BME280;34453;52.198;5.004;2023-08-30T00:31:55;100876.16;;;14.35;100.00
48668;BME280;34453;52.198;5.004;2023-08-30T00:34:20;100877.97;;;14.43;100.00
48668;BME280;34453;52.198;5.004;2023-08-30T00:36:46;100870.53;;;14.38;100.00
48668;BME280;34453;52.198;5.004;2023-08-30T00:39:11;100872.84;;;14.41;100.00
48668;BME280;34453;52.198;5.004;2023-08-30T00:41:38;100869.88;;;14.44;100.00
48668;BME280;34453;52.198;5.004;2023-08-30T00:44:03;100866.59;;;14.42;100.00
48668;BME280;34453;52.198;5.004;2023-08-30T00:46:29;100864.97;;;14.41;100.00
48668;BME280;34453;52.198;5.004;2023-08-30T00:48:56;100872.38;;;14.46;100.00
48668;BME280;34453;52.198;5.004;2023-08-30T00:51:21;100867.91;;;14.38;100.00
48668;BME280;34453;52.198;5.004;2023-08-30T00:53:48;100872.84;;;14.41;100.00
48668;BME280;34453;52.198;5.004;2023-08-30T00:56:14;100862.66;;;14.46;100.00
48668;BME280;34453;52.198;5.004;2023-08-30T00:58:40;100867.91;;;14.38;100.00
48668;BME280;34453;52.198;5.004;2023-08-30T01:01:06;100867.25;;;14.44;100.00
48668;BME280;34453;52.198;5.004;2023-08-30T01:03:34;100847.19;;;14.43;100.00
48668;BME280;34453;52.198;5.004;2023-08-30T01:06:00;100847.00;;;14.45;100.00
48668;BME280;34453;52.198;5.004;2023-08-30T01:08:27;100851.81;;;14.41;100.00
48668;BME280;34453;52.198;5.004;2023-08-30T01:11:24;100853.44;;;14.42;100.00
48668;BME280;34453;52.198;5.004;2023-08-30T01:13:58;100844.06;;;14.48;100.00
48668;BME280;34453;52.198;5.004;2023-08-30T01:16:24;100835.00;;;14.42;100.00
48668;BME280;34453;52.198;5.004;2023-08-30T01:18:54;100841.75;;;14.45;100.00
48668;BME280;34453;52.198;5.004;2023-08-30T01:21:36;100846.38;;;14.43;100.00
48668;BME280;34453;52.198;5.004;2023-08-30T01:24:09;100836.47;;;14.45;100.00
48668;BME280;34453;52.198;5.004;2023-08-30T01:27:07;100844.22;;;14.46;100.00
48668;BME280;34453;52.198;5.004;2023-08-30T01:29:33;100838.63;;;14.49;100.00
48668;BME280;34453;52.198;5.004;2023-08-30T01:32:00;100837.31;;;14.45;100.00
48668;BME280;34453;52.198;5.004;2023-08-30T01:34:26;100839.31;;;14.43;100.00
48668;BME280;34453;52.198;5.004;2023-08-30T01:36:52;100840.63;;;14.39;100.00
48668;BME280;34453;52.198;5.004;2023-08-30T01:39:20;100841.59;;;14.46;100.00
48668;BME280;34453;52.198;5.004;2023-08-30T01:41:47;100840.28;;;14.42;100.00
48668;BME280;34453;52.198;5.004;2023-08-30T01:44:14;100831.88;;;14.47;100.00
48668;BME280;34453;52.198;5.004;2023-08-30T01:46:42;100830.25;;;14.46;100.00
48668;BME280;34453;52.198;5.004;2023-08-30T01:49:10;100828.59;;;14.45;100.00
48668;BME280;34453;52.198;5.004;2023-08-30T01:51:36;100830.41;;;14.52;100.00
48668;BME280;34453;52.198;5.004;2023-08-30T01:54:03;100828.28;;;14.48;100.00
48668;BME280;34453;52.198;5.004;2023-08-30T01:56:29;100826.81;;;14.45;100.00
48668;BME280;34453;52.198;5.004;2023-08-30T01:58:55;100822.50;;;14.44;100.00
48668;BME280;34453;52.198;5.004;2023-08-30T02:01:20;100823.66;;;14.42;100.00
48668;BME280;34453;52.198;5.004;2023-08-30T02:03:45;100824.97;;;14.46;100.00
48668;BME280;34453;52.198;5.004;2023-08-30T02:09:01;100810.97;;;14.54;100.00
48668;BME280;34453;52.198;5.004;2023-08-30T02:11:31;100811.66;;;14.47;100.00
48668;BME280;34453;52.198;5.004;2023-08-30T02:13:59;100803.78;;;14.39;100.00
48668;BME280;34453;52.198;5.004;2023-08-30T02:16:26;100806.41;;;14.39;100.00
48668;BME280;34453;52.198;5.004;2023-08-30T02:18:51;100808.03;;;14.40;100.00
48668;BME280;34453;52.198;5.004;2023-08-30T02:21:17;100812.16;;;14.35;100.00
48668;BME280;34453;52.198;5.004;2023-08-30T02:23:43;100811.66;;;14.31;100.00
48668;BME280;34453;52.198;5.004;2023-08-30T02:26:09;100809.53;;;14.26;100.00
48668;BME280;34453;52.198;5.004;2023-08-30T02:28:34;100811.03;;;14.21;100.00
48668;BME280;34453;52.198;5.004;2023-08-30T02:30:59;100810.53;;;14.17;100.00
48668;BME280;34453;52.198;5.004;2023-08-30T02:33:25;100808.41;;;14.13;100.00
48668;BME280;34453;52.198;5.004;2023-08-30T02:35:50;100802.16;;;14.05;100.00
48668;BME280;34453;52.198;5.004;2023-08-30T02:38:16;100803.78;;;13.98;100.00
48668;BME280;34453;52.198;5.004;2023-08-30T02:40:42;100793.44;;;13.97;100.00
48668;BME280;34453;52.198;5.004;2023-08-30T02:43:08;100800.16;;;13.91;100.00
48668;BME280;34453;52.198;5.004;2023-08-30T02:45:33;100793.91;;;13.84;100.00
48668;BME280;34453;52.198;5.004;2023-08-30T02:47:58;100789.66;;;13.91;100.00
48668;BME280;34453;52.198;5.004;2023-08-30T02:50:24;100793.41;;;13.80;100.00
48668;BME280;34453;52.198;5.004;2023-08-30T02:52:50;100778.78;;;13.78;100.00
48668;BME280;34453;52.198;5.004;2023-08-30T02:55:16;100783.22;;;13.69;100.00
48668;BME280;34453;52.198;5.004;2023-08-30T02:57:41;100771.88;;;13.68;100.00
48668;BME280;34453;52.198;5.004;2023-08-30T03:00:07;100765.97;;;13.66;100.00
48668;BME280;34453;52.198;5.004;2023-08-30T03:02:34;100759.72;;;13.59;100.00
48668;BME280;34453;52.198;5.004;2023-08-30T03:04:59;100756.09;;;13.60;100.00
48668;BME280;34453;52.198;5.004;2023-08-30T03:07:25;100759.72;;;13.59;100.00
48668;BME280;34453;52.198;5.004;2023-08-30T03:09:53;100745.59;;;13.60;100.00
48668;BME280;34453;52.198;5.004;2023-08-30T03:12:19;100741.16;;;13.61;100.00
48668;BME280;34453;52.198;5.004;2023-08-30T03:14:45;100741.84;;;13.63;100.00
48668;BME280;34453;52.198;5.004;2023-08-30T03:17:10;100742.66;;;13.63;100.00
48668;BME280;34453;52.198;5.004;2023-08-30T03:19:35;100730.16;;;13.57;100.00
48668;BME280;34453;52.198;5.004;2023-08-30T03:22:01;100732.44;;;13.60;100.00
48668;BME280;34453;52.198;5.004;2023-08-30T03:24:26;100728.34;;;13.66;100.00
48668;BME280;34453;52.198;5.004;2023-08-30T03:26:52;100716.84;;;13.67;100.00
48668;BME280;34453;52.198;5.004;2023-08-30T03:29:17;100715.34;;;13.64;100.00
48668;BME280;34453;52.198;5.004;2023-08-30T03:31:43;100713.53;;;13.65;100.00
48668;BME280;34453;52.198;5.004;2023-08-30T03:34:09;100706.81;;;13.62;100.00
48668;BME280;34453;52.198;5.004;2023-08-30T03:36:34;100702.38;;;13.55;100.00
48668;BME280;34453;52.198;5.004;2023-08-30T03:39:00;100704.38;;;13.61;100.00
48668;BME280;34453;52.198;5.004;2023-08-30T03:41:25;100697.31;;;13.61;100.00
48668;BME280;34453;52.198;5.004;2023-08-30T03:43:51;100703.22;;;13.63;100.00
48668;BME280;34453;52.198;5.004;2023-08-30T03:46:16;100691.53;;;13.66;100.00
48668;BME280;34453;52.198;5.004;2023-08-30T03:48:42;100696.47;;;13.69;100.00
48668;BME280;34453;52.198;5.004;2023-08-30T03:51:07;100691.53;;;13.66;100.00
48668;BME280;34453;52.198;5.004;2023-08-30T03:53:33;100685.28;;;13.67;100.00
48668;BME280;34453;52.198;5.004;2023-08-30T03:55:58;100684.16;;;13.70;100.00
48668;BME280;34453;52.198;5.004;2023-08-30T03:58:24;100680.69;;;13.69;100.00
48668;BME280;34453;52.198;5.004;2023-08-30T04:00:50;100680.69;;;13.69;100.00
48668;BME280;34453;52.198;5.004;2023-08-30T04:03:15;100691.72;;;13.73;100.00
48668;BME280;34453;52.198;5.004;2023-08-30T04:05:42;100686.44;;;13.73;100.00
48668;BME280;34453;52.198;5.004;2023-08-30T04:08:08;100687.41;;;13.72;100.00
48668;BME280;34453;52.198;5.004;2023-08-30T04:10:41;100690.72;;;13.74;100.00
48668;BME280;34453;52.198;5.004;2023-08-30T04:13:07;100692.34;;;13.66;100.00
48668;BME280;34453;52.198;5.004;2023-08-30T04:15:37;100681.84;;;13.66;100.00
48668;BME280;34453;52.198;5.004;2023-08-30T04:18:03;100695.81;;;13.75;100.00
48668;BME280;34453;52.198;5.004;2023-08-30T04:20:30;100687.59;;;13.70;100.00
48668;BME280;34453;52.198;5.004;2023-08-30T04:22:55;100694.00;;;13.76;100.00
48668;BME280;34453;52.198;5.004;2023-08-30T04:25:22;100685.63;;;13.72;100.00
48668;BME280;34453;52.198;5.004;2023-08-30T04:27:47;100674.63;;;13.68;100.00
48668;BME280;34453;52.198;5.004;2023-08-30T04:30:13;100676.28;;;13.70;100.00
48668;BME280;34453;52.198;5.004;2023-08-30T04:32:39;100680.69;;;13.69;100.00
48668;BME280;34453;52.198;5.004;2023-08-30T04:35:05;100679.88;;;13.68;100.00
48668;BME280;34453;52.198;5.004;2023-08-30T04:37:31;100666.06;;;13.66;100.00
48668;BME280;34453;52.198;5.004;2023-08-30T04:39:59;100674.31;;;13.63;100.00
48668;BME280;34453;52.198;5.004;2023-08-30T04:42:25;100669.69;;;13.65;100.00
48668;BME280;34453;52.198;5.004;2023-08-30T04:44:51;100672.13;;;13.67;100.00
48668;BME280;34453;52.198;5.004;2023-08-30T04:47:19;100669.50;;;13.67;100.00
48668;BME280;34453;52.198;5.004;2023-08-30T04:49:50;100666.56;;;13.70;100.00
48668;BME280;34453;52.198;5.004;2023-08-30T04:52:15;100656.38;;;13.75;100.00
48668;BME280;34453;52.198;5.004;2023-08-30T04:54:41;100658.34;;;13.81;100.00
48668;BME280;34453;52.198;5.004;2023-08-30T04:57:08;100652.75;;;13.84;100.00
48668;BME280;34453;52.198;5.004;2023-08-30T04:59:33;100661.94;;;13.80;100.00
48668;BME280;34453;52.198;5.004;2023-08-30T05:01:59;100655.56;;;13.75;100.00
48668;BME280;34453;52.198;5.004;2023-08-30T05:04:24;100654.56;;;13.76;100.00
48668;BME280;34453;52.198;5.004;2023-08-30T05:06:50;100657.84;;;13.78;100.00
48668;BME280;34453;52.198;5.004;2023-08-30T05:09:15;100651.63;;;13.71;100.00
48668;BME280;34453;52.198;5.004;2023-08-30T05:11:41;100653.59;;;13.68;100.00
48668;BME280;34453;52.198;5.004;2023-08-30T05:14:06;100652.94;;;13.66;100.00
48668;BME280;34453;52.198;5.004;2023-08-30T05:16:32;100654.41;;;13.69;100.00
48668;BME280;34453;52.198;5.004;2023-08-30T05:18:57;100658.19;;;13.66;100.00
48668;BME280;34453;52.198;5.004;2023-08-30T05:21:23;100666.06;;;13.75;100.00
48668;BME280;34453;52.198;5.004;2023-08-30T05:23:48;100667.03;;;13.74;100.00
48668;BME280;34453;52.198;5.004;2023-08-30T05:26:13;100664.91;;;13.77;100.00
48668;BME280;34453;52.198;5.004;2023-08-30T05:28:39;100671.81;;;13.78;100.00
48668;BME280;34453;52.198;5.004;2023-08-30T05:31:05;100672.00;;;13.77;100.00
48668;BME280;34453;52.198;5.004;2023-08-30T05:33:31;100680.53;;;13.79;100.00
48668;BME280;34453;52.198;5.004;2023-08-30T05:35:56;100689.41;;;13.78;100.00
48668;BME280;34453;52.198;5.004;2023-08-30T05:38:22;100690.41;;;13.77;100.00
48668;BME280;34453;52.198;5.004;2023-08-30T05:40:47;100681.19;;;13.73;100.00
48668;BME280;34453;52.198;5.004;2023-08-30T05:43:13;100683.81;;;13.64;100.00
48668;BME280;34453;52.198;5.004;2023-08-30T05:45:38;100681.38;;;13.63;100.00
48668;BME280;34453;52.198;5.004;2023-08-30T05:48:05;100683.84;;;13.56;100.00
48668;BME280;34453;52.198;5.004;2023-08-30T05:50:30;100682.16;;;13.47;100.00
48668;BME280;34453;52.198;5.004;2023-08-30T05:52:56;100678.88;;;13.29;100.00
48668;BME280;34453;52.198;5.004;2023-08-30T05:55:21;100673.63;;;13.29;100.00
48668;BME280;34453;52.198;5.004;2023-08-30T05:57:47;100672.75;;;13.12;100.00
48668;BME280;34453;52.198;5.004;2023-08-30T06:00:12;100666.19;;;13.07;100.00
48668;BME280;34453;52.198;5.004;2023-08-30T06:02:39;100654.84;;;13.07;100.00
48668;BME280;34453;52.198;5.004;2023-08-30T06:05:04;100653.19;;;12.98;100.00
48668;BME280;34453;52.198;5.004;2023-08-30T06:07:30;100639.75;;;13.01;100.00
48668;BME280;34453;52.198;5.004;2023-08-30T06:09:55;100620.03;;;12.89;100.00
48668;BME280;34453;52.198;5.004;2023-08-30T06:12:21;100613.63;;;12.83;100.00
48668;BME280;34453;52.198;5.004;2023-08-30T06:14:46;100585.41;;;12.85;100.00
48668;BME280;34453;52.198;5.004;2023-08-30T06:17:20;100570.63;;;12.84;100.00
48668;BME280;34453;52.198;5.004;2023-08-30T06:19:46;100539.47;;;12.81;100.00
48668;BME280;34453;52.198;5.004;2023-08-30T06:22:12;100459.84;;;12.80;100.00
48668;BME280;34453;52.198;5.004;2023-08-30T06:24:37;100433.28;;;12.67;100.00
48668;BME280;34453;52.198;5.004;2023-08-30T06:27:03;100423.44;;;12.77;100.00
48668;BME280;34453;52.198;5.004;2023-08-30T06:29:29;100403.75;;;12.81;100.00
48668;BME280;34453;52.198;5.004;2023-08-30T06:31:54;100401.13;;;12.81;100.00
48668;BME280;34453;52.198;5.004;2023-08-30T06:34:19;100387.34;;;12.88;100.00
48668;BME280;34453;52.198;5.004;2023-08-30T06:36:45;100388.50;;;12.85;100.00
48668;BME280;34453;52.198;5.004;2023-08-30T06:39:10;100378.31;;;12.90;100.00
48668;BME280;34453;52.198;5.004;2023-08-30T06:41:36;100371.59;;;12.88;100.00
48668;BME280;34453;52.198;5.004;2023-08-30T06:44:01;100352.88;;;12.91;100.00
48668;BME280;34453;52.198;5.004;2023-08-30T06:46:27;100338.91;;;12.98;100.00
48668;BME280;34453;52.198;5.004;2023-08-30T06:48:52;100339.72;;;12.99;100.00
48668;BME280;34453;52.198;5.004;2023-08-30T06:51:18;100313.28;;;13.00;100.00
48668;BME280;34453;52.198;5.004;2023-08-30T06:53:43;100306.53;;;13.14;100.00
48668;BME280;34453;52.198;5.004;2023-08-30T06:56:08;100313.25;;;13.17;100.00
48668;BME280;34453;52.198;5.004;2023-08-30T06:58:34;100304.84;;;13.21;100.00
48668;BME280;34453;52.198;5.004;2023-08-30T07:01:00;100302.88;;;13.23;100.00
48668;BME280;34453;52.198;5.004;2023-08-30T07:03:25;100288.41;;;13.27;100.00
48668;BME280;34453;52.198;5.004;2023-08-30T07:05:51;100275.59;;;13.33;100.00
48668;BME280;34453;52.198;5.004;2023-08-30T07:08:17;100276.25;;;13.26;100.00
48668;BME280;34453;52.198;5.004;2023-08-30T07:10:42;100272.44;;;13.37;100.00
48668;BME280;34453;52.198;5.004;2023-08-30T07:13:08;100269.31;;;13.42;100.00
48668;BME280;34453;52.198;5.004;2023-08-30T07:15:41;100266.84;;;13.40;100.00
48668;BME280;34453;52.198;5.004;2023-08-30T07:18:08;100249.75;;;13.44;100.00
48668;BME280;34453;52.198;5.004;2023-08-30T07:20:34;100246.94;;;13.46;100.00
48668;BME280;34453;52.198;5.004;2023-08-30T07:23:03;100238.91;;;13.47;100.00
48668;BME280;34453;52.198;5.004;2023-08-30T07:25:31;100236.72;;;13.51;100.00
48668;BME280;34453;52.198;5.004;2023-08-30T07:27:59;100232.09;;;13.53;100.00
48668;BME280;34453;52.198;5.004;2023-08-30T07:30:24;100223.25;;;13.54;100.00
48668;BME280;34453;52.198;5.004;2023-08-30T07:32:50;100201.06;;;13.57;100.00
48668;BME280;34453;52.198;5.004;2023-08-30T07:35:15;100184.38;;;13.64;100.00
48668;BME280;34453;52.198;5.004;2023-08-30T07:37:41;100162.13;;;13.75;100.00
48668;BME280;34453;52.198;5.004;2023-08-30T07:40:07;100124.34;;;13.76;100.00
48668;BME280;34453;52.198;5.004;2023-08-30T07:42:33;100126.31;;;13.74;100.00
48668;BME280;34453;52.198;5.004;2023-08-30T07:44:59;100111.09;;;13.70;100.00
48668;BME280;34453;52.198;5.004;2023-08-30T07:47:24;100114.22;;;13.65;100.00
48668;BME280;34453;52.198;5.004;2023-08-30T07:49:50;100106.53;;;13.78;100.00
48668;BME280;34453;52.198;5.004;2023-08-30T07:52:15;100122.22;;;13.72;100.00
48668;BME280;34453;52.198;5.004;2023-08-30T07:54:41;100117.44;;;13.75;100.00
48668;BME280;34453;52.198;5.004;2023-08-30T07:57:06;100115.81;;;13.74;100.00
48668;BME280;34453;52.198;5.004;2023-08-30T07:59:33;100111.19;;;13.91;100.00
48668;BME280;34453;52.198;5.004;2023-08-30T08:01:59;100116.00;;;13.87;100.00
48668;BME280;34453;52.198;5.004;2023-08-30T08:04:24;100122.41;;;13.85;100.00
48668;BME280;34453;52.198;5.004;2023-08-30T08:06:50;100113.75;;;13.99;100.00
48668;BME280;34453;52.198;5.004;2023-08-30T08:09:15;100125.22;;;13.98;100.00
48668;BME280;34453;52.198;5.004;2023-08-30T08:11:41;100122.44;;;14.00;100.00
48668;BME280;34453;52.198;5.004;2023-08-30T08:14:09;100125.88;;;14.00;100.00
48668;BME280;34453;52.198;5.004;2023-08-30T08:16:35;100130.16;;;14.01;100.00
48668;BME280;34453;52.198;5.004;2023-08-30T08:19:01;100127.97;;;14.05;100.00
48668;BME280;34453;52.198;5.004;2023-08-30T08:21:26;100130.78;;;13.88;100.00
48668;BME280;34453;52.198;5.004;2023-08-30T08:23:52;100134.59;;;13.86;100.00
48668;BME280;34453;52.198;5.004;2023-08-30T08:26:18;100119.16;;;13.98;100.00
48668;BME280;34453;52.198;5.004;2023-08-30T08:28:44;100122.16;;;13.95;100.00
48668;BME280;34453;52.198;5.004;2023-08-30T08:31:09;100121.34;;;13.94;100.00
48668;BME280;34453;52.198;5.004;2023-08-30T08:33:35;100128.94;;;13.89;100.00
48668;BME280;34453;52.198;5.004;2023-08-30T08:36:01;100129.88;;;13.96;100.00
48668;BME280;34453;52.198;5.004;2023-08-30T08:38:26;100122.59;;;13.98;100.00
48668;BME280;34453;52.198;5.004;2023-08-30T08:41:02;100119.00;;;13.99;100.00
48668;BME280;34453;52.198;5.004;2023-08-30T08:43:29;100124.63;;;14.11;100.00
48668;BME280;34453;52.198;5.004;2023-08-30T08:45:59;100111.91;;;14.00;100.00
48668;BME280;34453;52.198;5.004;2023-08-30T08:48:26;100114.72;;;13.98;100.00
48668;BME280;34453;52.198;5.004;2023-08-30T08:50:54;100104.19;;;13.98;100.00
48668;BME280;34453;52.198;5.004;2023-08-30T08:53:21;100108.00;;;13.96;100.00
48668;BME280;34453;52.198;5.004;2023-08-30T08:55:47;100108.47;;;13.99;100.00
48668;BME280;34453;52.198;5.004;2023-08-30T08:58:14;100108.56;;;14.06;100.00
48668;BME280;34453;52.198;5.004;2023-08-30T09:00:44;100109.28;;;14.00;100.00
48668;BME280;34453;52.198;5.004;2023-08-30T09:03:10;100109.63;;;14.12;100.00
48668;BME280;34453;52.198;5.004;2023-08-30T09:05:39;100112.66;;;14.08;100.00
48668;BME280;34453;52.198;5.004;2023-08-30T09:08:06;100099.59;;;14.15;100.00
48668;BME280;34453;52.198;5.004;2023-08-30T09:10:32;100103.31;;;14.21;100.00
48668;BME280;34453;52.198;5.004;2023-08-30T09:12:58;100110.03;;;14.23;100.00
48668;BME280;34453;52.198;5.004;2023-08-30T09:15:32;100119.34;;;14.26;100.00
48668;BME280;34453;52.198;5.004;2023-08-30T09:17:58;100111.00;;;14.22;100.00
48668;BME280;34453;52.198;5.004;2023-08-30T09:20:24;100110.81;;;14.24;100.00
48668;BME280;34453;52.198;5.004;2023-08-30T09:22:50;100108.84;;;14.26;100.00
48668;BME280;34453;52.198;5.004;2023-08-30T09:25:26;100108.47;;;14.29;100.00
48668;BME280;34453;52.198;5.004;2023-08-30T09:27:58;100107.00;;;14.41;100.00
48668;BME280;34453;52.198;5.004;2023-08-30T09:30:26;100112.13;;;14.49;100.00
48668;BME280;34453;52.198;5.004;2023-08-30T09:32:52;100105.09;;;14.50;100.00
48668;BME280;34453;52.198;5.004;2023-08-30T09:35:17;100106.81;;;14.58;100.00
48668;BME280;34453;52.198;5.004;2023-08-30T09:37:46;100100.75;;;14.57;100.00
48668;BME280;34453;52.198;5.004;2023-08-30T09:40:12;100106.72;;;14.66;100.00
48668;BME280;34453;52.198;5.004;2023-08-30T09:42:41;100099.69;;;14.73;100.00
48668;BME280;34453;52.198;5.004;2023-08-30T09:45:19;100087.75;;;14.92;100.00
48668;BME280;34453;52.198;5.004;2023-08-30T09:47:48;100082.66;;;15.12;100.00
48668;BME280;34453;52.198;5.004;2023-08-30T09:50:20;100072.78;;;15.70;100.00
48668;BME280;34453;52.198;5.004;2023-08-30T09:52:49;100065.06;;;16.04;100.00
48668;BME280;34453;52.198;5.004;2023-08-30T09:55:18;100075.28;;;16.20;100.00
48668;BME280;34453;52.198;5.004;2023-08-30T09:57:44;100077.75;;;16.22;100.00
48668;BME280;34453;52.198;5.004;2023-08-30T10:00:10;100077.81;;;16.42;100.00
48668;BME280;34453;52.198;5.004;2023-08-30T10:02:41;100084.78;;;16.69;100.00
48668;BME280;34453;52.198;5.004;2023-08-30T10:05:09;100090.38;;;16.94;100.00
48668;BME280;34453;52.198;5.004;2023-08-30T10:07:35;100117.63;;;17.02;100.00
48668;BME280;34453;52.198;5.004;2023-08-30T10:10:03;100144.72;;;17.30;100.00
48668;BME280;34453;52.198;5.004;2023-08-30T10:12:31;100163.63;;;17.67;100.00
48668;BME280;34453;52.198;5.004;2023-08-30T10:14:57;100211.88;;;17.89;100.00
48668;BME280;34453;52.198;5.004;2023-08-30T10:17:31;100246.88;;;18.05;100.00
48668;BME280;34453;52.198;5.004;2023-08-30T10:19:59;100275.81;;;18.19;100.00
48668;BME280;34453;52.198;5.004;2023-08-30T10:22:25;100304.09;;;18.39;100.00
48668;BME280;34453;52.198;5.004;2023-08-30T10:24:55;100325.47;;;18.51;100.00
48668;BME280;34453;52.198;5.004;2023-08-30T10:27:22;100344.22;;;18.36;100.00
48668;BME280;34453;52.198;5.004;2023-08-30T10:29:49;100383.75;;;18.44;100.00
48668;BME280;34453;52.198;5.004;2023-08-30T10:32:20;100377.84;;;18.55;100.00
48668;BME280;34453;52.198;5.004;2023-08-30T10:34:48;100385.75;;;18.75;100.00
48668;BME280;34453;52.198;5.004;2023-08-30T10:37:15;100398.22;;;18.95;100.00
48668;BME280;34453;52.198;5.004;2023-08-30T10:39:41;100399.09;;;19.40;100.00
48668;BME280;34453;52.198;5.004;2023-08-30T10:42:14;100407.19;;;19.59;100.00
48668;BME280;34453;52.198;5.004;2023-08-30T10:47:28;100418.34;;;19.09;100.00
48668;BME280;34453;52.198;5.004;2023-08-30T10:49:55;100430.19;;;18.67;100.00
48668;BME280;34453;52.198;5.004;2023-08-30T10:52:21;100428.16;;;18.35;100.00
48668;BME280;34453;52.198;5.004;2023-08-30T10:54:47;100436.28;;;18.27;100.00
48668;BME280;34453;52.198;5.004;2023-08-30T10:57:25;100443.34;;;18.00;100.00
48668;BME280;34453;52.198;5.004;2023-08-30T11:02:36;100450.91;;;17.96;100.00
48668;BME280;34453;52.198;5.004;2023-08-30T11:05:03;100439.78;;;18.34;100.00
48668;BME280;34453;52.198;5.004;2023-08-30T11:07:29;100441.22;;;18.50;100.00
48668;BME280;34453;52.198;5.004;2023-08-30T11:09:55;100444.47;;;18.46;100.00
48668;BME280;34453;52.198;5.004;2023-08-30T11:12:20;100464.00;;;18.38;100.00
48668;BME280;34453;52.198;5.004;2023-08-30T11:14:51;100468.50;;;18.57;100.00
48668;BME280;34453;52.198;5.004;2023-08-30T11:17:17;100480.09;;;18.43;100.00
48668;BME280;34453;52.198;5.004;2023-08-30T11:19:42;100497.63;;;18.44;100.00
48668;BME280;34453;52.198;5.004;2023-08-30T11:22:08;100501.72;;;18.60;100.00
48668;BME280;34453;52.198;5.004;2023-08-30T11:24:34;100501.34;;;19.10;100.00
48668;BME280;34453;52.198;5.004;2023-08-30T11:27:00;100507.88;;;18.94;100.00
48668;BME280;34453;52.198;5.004;2023-08-30T11:29:26;100515.63;;;19.35;100.00
48668;BME280;34453;52.198;5.004;2023-08-30T11:31:52;100526.00;;;19.70;100.00
48668;BME280;34453;52.198;5.004;2023-08-30T11:34:20;100523.06;;;19.85;100.00
48668;BME280;34453;52.198;5.004;2023-08-30T11:36:47;100548.88;;;18.91;100.00
48668;BME280;34453;52.198;5.004;2023-08-30T11:39:13;100536.94;;;18.47;100.00
48668;BME280;34453;52.198;5.004;2023-08-30T11:41:39;100532.97;;;19.18;100.00
48668;BME280;34453;52.198;5.004;2023-08-30T11:44:05;100546.78;;;19.60;100.00
48668;BME280;34453;52.198;5.004;2023-08-30T11:46:31;100541.47;;;19.60;100.00
48668;BME280;34453;52.198;5.004;2023-08-30T11:48:57;100552.50;;;19.63;100.00
48668;BME280;34453;52.198;5.004;2023-08-30T11:51:23;100558.97;;;19.94;100.00
48668;BME280;34453;52.198;5.004;2023-08-30T11:53:48;100555.31;;;19.88;100.00
48668;BME280;34453;52.198;5.004;2023-08-30T11:56:15;100571.63;;;19.99;100.00
48668;BME280;34453;52.198;5.004;2023-08-30T11:58:42;100567.34;;;19.98;100.00
48668;BME280;34453;52.198;5.004;2023-08-30T12:01:08;100578.75;;;19.98;100.00
48668;BME280;34453;52.198;5.004;2023-08-30T12:03:34;100580.78;;;20.03;100.00
48668;BME280;34453;52.198;5.004;2023-08-30T12:06:00;100581.47;;;19.78;100.00
48668;BME280;34453;52.198;5.004;2023-08-30T12:08:28;100584.97;;;20.37;100.00
48668;BME280;34453;52.198;5.004;2023-08-30T12:10:55;100575.28;;;20.88;100.00
48668;BME280;34453;52.198;5.004;2023-08-30T12:13:29;100598.31;;;20.17;100.00
48668;BME280;34453;52.198;5.004;2023-08-30T12:15:56;100598.63;;;19.76;100.00
48668;BME280;34453;52.198;5.004;2023-08-30T12:18:27;100601.91;;;19.58;100.00
48668;BME280;34453;52.198;5.004;2023-08-30T12:21:00;100612.13;;;19.14;100.00
48668;BME280;34453;52.198;5.004;2023-08-30T12:23:31;100614.53;;;18.89;100.00
48668;BME280;34453;52.198;5.004;2023-08-30T12:25:58;100620.66;;;18.96;100.00
48668;BME280;34453;52.198;5.004;2023-08-30T12:28:28;100621.59;;;18.75;100.00
48668;BME280;34453;52.198;5.004;2023-08-30T12:30:54;100623.50;;;18.88;100.00
48668;BME280;34453;52.198;5.004;2023-08-30T12:33:20;100617.19;;;18.96;100.00
48668;BME280;34453;52.198;5.004;2023-08-30T12:35:46;100621.41;;;18.70;100.00
48668;BME280;34453;52.198;5.004;2023-08-30T12:38:12;100615.22;;;18.56;100.00
48668;BME280;34453;52.198;5.004;2023-08-30T12:40:42;100618.47;;;18.52;100.00
48668;BME280;34453;52.198;5.004;2023-08-30T12:43:07;100625.97;;;18.41;100.00
48668;BME280;34453;52.198;5.004;2023-08-30T12:45:33;100634.72;;;18.35;100.00